This is the latest recevied weather packets stored in our database for station/object W0RMT-13. If no packets are shown the sender has not sent any weather packets the latest 10 day(s).
| Time | Temp. | Humidity | Pressure | Rain* | Wind** | Luminosity | Snow |
|---|---|---|---|---|---|---|---|
| 1777860237 | 17.78° C | 28% | 1011 hPa | 0 mm | - | 0 W/m² | - |
| 1777859572 | 18.33° C | 28% | 1011 hPa | 0 mm | - | 0 W/m² | - |
| 1777858894 | 18.33° C | 28% | 1011 hPa | 0 mm | - | 0 W/m² | - |
| 1777858275 | 18.89° C | 27% | 1011 hPa | 0 mm | - | 0 W/m² | - |
| 1777857588 | 18.89° C | 27% | 1011 hPa | 0 mm | - | 0 W/m² | - |
| 1777856910 | 18.89° C | 27% | 1011 hPa | 0 mm | - | 5 W/m² | - |
| 1777856223 | 18.89° C | 28% | 1011.5 hPa | 0 mm | - | 8 W/m² | - |
| 1777855531 | 18.89° C | 28% | 1011.5 hPa | 0 mm | - | 16 W/m² | - |
| 1777854918 | 19.44° C | 28% | 1011.5 hPa | 0 mm | - | 18 W/m² | - |
| 1777854293 | 19.44° C | 29% | 1011.5 hPa | 0 mm | - | 18 W/m² | - |
| 1777853671 | 19.44° C | 28% | 1011.8 hPa | 0 mm | - | 32 W/m² | - |
| 1777853055 | 19.44° C | 28% | 1011.8 hPa | 0 mm | - | 39 W/m² | - |
| 1777852415 | 19.44° C | 28% | 1011.8 hPa | 0 mm | - | 48 W/m² | - |
| 1777851755 | 20° C | 32% | 1012.2 hPa | 0 mm | - | 21 W/m² | - |
| 1777851095 | 20.56° C | 26% | 1011.8 hPa | 0 mm | - | 28 W/m² | - |
| 1777850486 | 20.56° C | 25% | 1011.8 hPa | 0 mm | - | 81 W/m² | - |
| 1777849874 | 20.56° C | 25% | 1011.8 hPa | 0 mm | - | 127 W/m² | - |
| 1777849170 | 20.56° C | 28% | 1012.2 hPa | 0 mm | - | 291 W/m² | - |
| 1777848510 | 21.67° C | 24% | 1011.5 hPa | 0 mm | - | 61 W/m² | - |
| 1777847881 | 21.67° C | 23% | 1011.5 hPa | 0 mm | - | 75 W/m² | - |
| 1777847233 | 21.67° C | 21% | 1011.5 hPa | 0 mm | - | 130 W/m² | - |
| 1777846616 | 21.67° C | 22% | 1011.8 hPa | 0 mm | - | 123 W/m² | - |
| 1777845935 | 22.22° C | 21% | 1011.8 hPa | 0 mm | - | 93 W/m² | - |
| 1777845315 | 22.78° C | 20% | 1011.8 hPa | 0 mm | - | 108 W/m² | - |
| 1777844689 | 22.78° C | 19% | 1011.8 hPa | 0 mm | - | 118 W/m² | - |
* Rain latest hour (hover to see other rain measurements)
** Current wind speed in m/s (hover to see current wind gust speed)